createdAt,value
2022-10-06T00:00:39.095Z,76929.44
2022-10-06T00:03:05.862Z,76937.13
2022-10-06T00:05:32.838Z,76946.78
2022-10-06T00:08:00.589Z,76952.56
2022-10-06T00:10:27.974Z,76956.41
2022-10-06T00:12:54.943Z,76958.34
2022-10-06T00:15:24.931Z,76960.25
2022-10-06T00:17:52.168Z,76967.97
2022-10-06T00:20:19.431Z,76975.69
2022-10-06T00:22:48.650Z,76983.38
2022-10-06T00:25:18.290Z,76994.97
2022-10-06T00:27:48.220Z,77014.22
2022-10-06T00:30:19.701Z,77023.88
2022-10-06T00:32:57.202Z,77033.50
2022-10-06T00:35:26.427Z,77045.06
2022-10-06T00:37:53.323Z,77062.41
2022-10-06T00:40:20.819Z,77072.03
2022-10-06T00:42:49.750Z,77087.47
2022-10-06T00:45:18.454Z,77091.31
2022-10-06T00:47:45.667Z,77099.03
2022-10-06T00:50:13.345Z,77114.44
2022-10-06T00:52:41.748Z,77122.16
2022-10-06T00:55:11.761Z,77127.94
2022-10-06T00:57:40.305Z,77137.56
2022-10-06T01:00:08.945Z,77139.50
2022-10-06T01:02:59.316Z,77153.00
2022-10-06T01:05:35.205Z,77158.78
2022-10-06T01:08:02.180Z,77156.84
2022-10-06T01:10:28.855Z,77156.84
2022-10-06T01:12:57.251Z,77156.84
2022-10-06T01:15:25.579Z,77160.69
2022-10-06T01:17:57.865Z,77166.47
2022-10-06T01:20:24.743Z,77164.56
2022-10-06T01:23:06.835Z,77162.63
2022-10-06T01:25:34.922Z,77166.47
2022-10-06T01:28:04.241Z,77172.28
2022-10-06T01:30:51.099Z,77160.69
2022-10-06T01:33:20.326Z,77162.63
2022-10-06T01:35:51.122Z,77164.56
2022-10-06T01:38:18.604Z,77162.63
2022-10-06T01:40:48.174Z,77166.47
2022-10-06T01:43:15.320Z,77160.69
2022-10-06T01:45:43.097Z,77166.47
2022-10-06T01:48:09.870Z,77176.13
2022-10-06T01:50:36.651Z,77178.06
2022-10-06T01:53:03.598Z,77174.19
2022-10-06T01:55:30.654Z,77174.19
2022-10-06T01:57:59.109Z,77187.69
2022-10-06T02:00:25.861Z,77189.63
2022-10-06T02:02:52.503Z,77199.25
2022-10-06T02:05:19.547Z,77197.31
2022-10-06T02:07:49.876Z,77201.19
2022-10-06T02:10:16.772Z,77206.97
2022-10-06T02:12:50.435Z,77212.75
2022-10-06T02:15:20.595Z,77220.44
2022-10-06T02:17:48.442Z,77224.31
2022-10-06T02:20:15.441Z,77222.38
2022-10-06T02:22:43.829Z,77224.31
2022-10-06T02:25:12.180Z,77228.16
2022-10-06T02:27:39.426Z,77226.22
2022-10-06T02:30:08.504Z,77233.94
2022-10-06T02:32:37.365Z,77233.94
2022-10-06T02:35:06.701Z,77241.66
2022-10-06T02:37:34.363Z,77241.66
2022-10-06T02:40:02.561Z,77243.56
2022-10-06T02:42:30.845Z,77243.56
2022-10-06T02:44:59.056Z,77247.44
2022-10-06T02:47:25.935Z,77243.56
2022-10-06T02:49:53.751Z,77245.50
2022-10-06T02:52:20.407Z,77241.66
2022-10-06T02:54:48.194Z,77237.78
2022-10-06T02:57:15.595Z,77233.94
2022-10-06T02:59:43.048Z,77235.88
2022-10-06T03:02:10.168Z,77237.78
2022-10-06T03:04:36.959Z,77247.44
2022-10-06T03:07:03.666Z,77249.38
2022-10-06T03:09:35.502Z,77257.06
2022-10-06T03:12:02.158Z,77262.84
2022-10-06T03:14:36.807Z,77276.34
2022-10-06T03:17:04.646Z,77272.50
2022-10-06T03:19:31.659Z,77278.28
2022-10-06T03:21:59.135Z,77285.97
2022-10-06T03:24:35.148Z,77295.63
2022-10-06T03:27:02.135Z,77291.75
2022-10-06T03:29:31.130Z,77291.75
2022-10-06T03:31:58.908Z,77295.63
2022-10-06T03:34:26.396Z,77301.41
2022-10-06T03:36:55.000Z,77307.19
2022-10-06T03:39:24.111Z,77303.34
2022-10-06T03:41:50.933Z,77307.19
2022-10-06T03:44:18.139Z,77303.34
2022-10-06T03:46:45.099Z,77314.91
2022-10-06T03:49:12.084Z,77314.91
2022-10-06T03:51:42.038Z,77316.81
2022-10-06T03:54:16.498Z,77324.53
2022-10-06T03:56:45.746Z,77334.16
2022-10-06T03:59:16.426Z,77339.94
2022-10-06T04:01:47.525Z,77341.88
2022-10-06T04:04:25.125Z,77341.88
2022-10-06T04:06:57.446Z,77341.88
2022-10-06T04:09:24.090Z,77345.72
2022-10-06T04:11:52.642Z,77357.28
2022-10-06T04:14:20.421Z,77361.16
2022-10-06T04:16:49.545Z,77365.00
2022-10-06T04:19:24.931Z,77372.72
2022-10-06T04:21:54.107Z,77374.66
2022-10-06T04:24:23.643Z,77376.56
2022-10-06T04:26:52.442Z,77378.50
2022-10-06T04:29:20.645Z,77361.16
2022-10-06T04:31:52.335Z,77347.66
2022-10-06T04:34:31.275Z,77330.31
2022-10-06T04:36:58.486Z,77341.88
2022-10-06T04:39:25.855Z,77347.66
2022-10-06T04:41:52.944Z,77353.44
2022-10-06T04:44:24.234Z,77368.88
2022-10-06T04:46:52.835Z,77368.88
2022-10-06T04:49:20.870Z,77372.72
2022-10-06T04:51:51.006Z,77384.28
2022-10-06T04:54:19.347Z,77382.34
2022-10-06T04:56:48.583Z,77392.00
2022-10-06T04:59:17.514Z,77407.41
2022-10-06T05:01:45.619Z,77424.75
2022-10-06T05:04:13.980Z,77434.41
2022-10-06T05:06:42.812Z,77447.88
2022-10-06T05:09:16.094Z,77442.09
2022-10-06T05:11:53.045Z,77445.97
2022-10-06T05:14:21.440Z,77453.69
2022-10-06T05:16:49.578Z,77438.25
2022-10-06T05:19:16.826Z,77384.28
2022-10-06T05:21:43.588Z,77343.81
2022-10-06T05:24:15.496Z,77311.03
2022-10-06T05:26:43.064Z,77338.03
2022-10-06T05:29:15.339Z,77357.28
2022-10-06T05:31:44.052Z,77382.34
2022-10-06T05:34:11.642Z,77415.13
2022-10-06T05:36:39.047Z,77438.25
2022-10-06T05:39:06.945Z,77445.97
2022-10-06T05:41:44.790Z,77449.81
2022-10-06T05:44:13.525Z,77457.53
2022-10-06T05:46:41.643Z,77453.69
2022-10-06T05:49:12.977Z,77445.97
2022-10-06T05:51:59.895Z,77445.97
2022-10-06T05:54:29.540Z,77445.97
2022-10-06T05:56:56.229Z,77444.03
2022-10-06T05:59:23.146Z,77434.41
2022-10-06T06:01:52.144Z,77430.53
2022-10-06T06:04:30.553Z,77426.69
2022-10-06T06:06:57.501Z,77407.41
2022-10-06T06:09:26.401Z,77361.16
2022-10-06T06:11:55.177Z,77222.38
2022-10-06T06:14:48.486Z,77029.66
2022-10-06T06:17:19.830Z,76788.75
2022-10-06T06:19:46.996Z,76686.59
2022-10-06T06:22:15.403Z,76632.66
2022-10-06T06:24:44.115Z,76520.88
2022-10-06T06:27:11.360Z,76570.97
2022-10-06T06:29:40.118Z,76651.91
2022-10-06T06:32:09.611Z,76493.91
2022-10-06T06:34:36.813Z,76386.00
2022-10-06T06:37:07.662Z,76262.66
2022-10-06T06:39:37.017Z,76177.91
2022-10-06T06:42:05.189Z,76096.97
2022-10-06T06:44:38.686Z,76123.94
2022-10-06T06:47:12.791Z,75948.63
2022-10-06T06:49:39.447Z,75873.47
2022-10-06T06:52:08.199Z,75885.03
2022-10-06T06:54:40.517Z,75765.59
2022-10-06T06:57:11.768Z,75692.38
2022-10-06T06:59:39.000Z,75738.63
2022-10-06T07:02:10.270Z,75723.19
2022-10-06T07:04:39.306Z,75692.38
2022-10-06T07:07:11.572Z,75655.78
2022-10-06T07:09:38.508Z,75640.34
2022-10-06T07:12:11.477Z,75653.84
2022-10-06T07:15:01.613Z,75671.19
2022-10-06T07:17:48.730Z,75692.38
2022-10-06T07:20:34.687Z,75642.28
2022-10-06T07:23:20.041Z,75650.00
2022-10-06T07:25:46.875Z,75638.44
2022-10-06T07:28:17.140Z,75613.38
2022-10-06T07:30:44.896Z,75626.88
2022-10-06T07:33:15.465Z,75646.13
2022-10-06T07:35:43.809Z,75653.84
2022-10-06T07:38:11.288Z,75819.53
2022-10-06T07:43:49.327Z,75757.88
2022-10-06T07:46:19.233Z,75682.75
2022-10-06T07:49:04.878Z,75630.72
2022-10-06T07:51:31.823Z,75657.69
2022-10-06T07:53:59.630Z,75709.72
2022-10-06T07:56:46.551Z,75719.34
2022-10-06T07:59:13.180Z,75771.38
2022-10-06T08:01:40.529Z,75842.66
2022-10-06T08:04:07.202Z,76012.19
2022-10-06T08:06:34.341Z,75962.09
2022-10-06T08:09:01.073Z,75923.56
2022-10-06T08:11:27.871Z,75885.03
2022-10-06T08:13:54.607Z,75981.38
2022-10-06T08:16:23.764Z,75902.38
2022-10-06T08:18:55.647Z,75804.13
2022-10-06T08:21:28.218Z,75746.31
2022-10-06T08:23:56.624Z,75754.03
2022-10-06T08:26:25.204Z,75671.19
2022-10-06T08:28:54.442Z,75665.41
2022-10-06T08:31:22.986Z,75642.28
2022-10-06T08:33:55.064Z,75711.63
2022-10-06T08:36:27.115Z,75711.63
2022-10-06T08:38:57.500Z,75727.06
2022-10-06T08:41:29.124Z,75738.63
2022-10-06T08:44:19.298Z,75661.56
2022-10-06T08:46:55.417Z,75601.81
2022-10-06T08:49:25.516Z,75607.59
2022-10-06T08:52:16.843Z,75715.50
2022-10-06T08:55:09.606Z,75719.34
2022-10-06T08:57:39.113Z,75754.03
2022-10-06T09:00:21.262Z,75834.94
2022-10-06T09:02:50.363Z,75913.94
2022-10-06T09:05:26.419Z,75946.69
2022-10-06T09:08:16.191Z,75923.56
2022-10-06T09:10:57.682Z,75923.56
2022-10-06T09:13:42.112Z,75919.72
2022-10-06T09:16:15.295Z,75869.63
2022-10-06T09:19:14.706Z,75802.19
2022-10-06T09:21:49.666Z,75771.38
2022-10-06T09:24:19.337Z,75873.47
2022-10-06T09:26:49.703Z,75807.97
2022-10-06T09:29:16.902Z,75773.28
2022-10-06T09:31:50.529Z,75748.25
2022-10-06T09:34:23.483Z,75732.84
2022-10-06T09:37:07.529Z,75740.53
2022-10-06T09:39:37.133Z,75732.84
2022-10-06T09:42:22.123Z,75730.91
2022-10-06T09:44:53.977Z,75819.53
2022-10-06T09:47:33.052Z,75806.03
2022-10-06T09:50:17.525Z,75775.22
2022-10-06T09:53:03.632Z,75734.75
2022-10-06T09:55:33.926Z,75738.63
2022-10-06T09:58:01.541Z,75759.81
2022-10-06T10:00:30.877Z,75727.06
2022-10-06T10:03:01.219Z,75742.47
2022-10-06T10:05:30.316Z,75773.28
2022-10-06T10:08:16.459Z,75738.63
2022-10-06T10:10:43.264Z,75698.16
2022-10-06T10:13:18.970Z,75696.22
2022-10-06T10:16:00.982Z,75705.84
2022-10-06T10:18:31.782Z,75650.00
2022-10-06T10:21:07.103Z,75657.69
2022-10-06T10:23:42.692Z,75669.25
2022-10-06T10:26:09.441Z,75615.31
2022-10-06T10:29:01.053Z,75597.97
2022-10-06T10:31:48.226Z,75607.59
2022-10-06T10:34:48.702Z,75609.53
2022-10-06T10:37:36.906Z,75582.56
2022-10-06T10:40:11.796Z,75596.03
2022-10-06T10:42:41.471Z,75580.63
2022-10-06T10:45:17.976Z,75534.41
2022-10-06T10:47:45.800Z,75599.91
2022-10-06T10:50:26.973Z,75597.97
2022-10-06T10:52:58.174Z,75624.94
2022-10-06T10:55:29.855Z,75613.38
2022-10-06T10:58:04.432Z,75611.47
2022-10-06T11:00:37.170Z,75651.91
2022-10-06T11:03:04.022Z,75588.34
2022-10-06T11:05:53.994Z,75599.91
2022-10-06T11:08:55.663Z,75609.53
2022-10-06T11:11:42.605Z,75580.63
2022-10-06T11:14:44.518Z,75619.16
2022-10-06T11:17:31.549Z,75630.72
2022-10-06T11:20:10.260Z,75634.56
2022-10-06T11:22:47.639Z,75626.88
2022-10-06T11:25:42.038Z,75684.66
2022-10-06T11:28:23.127Z,75611.47
2022-10-06T11:31:08.029Z,75567.16
2022-10-06T11:33:40.978Z,75572.94
2022-10-06T11:36:14.501Z,75547.88
2022-10-06T11:38:58.641Z,75536.31
2022-10-06T11:42:11.641Z,75565.22
2022-10-06T11:44:43.544Z,75545.97
2022-10-06T11:47:16.392Z,75528.63
2022-10-06T11:49:52.158Z,75503.59
2022-10-06T11:52:19.480Z,75503.59
2022-10-06T11:54:54.038Z,75476.59
2022-10-06T11:57:27.964Z,75436.16
2022-10-06T12:00:17.407Z,75430.38
2022-10-06T12:02:46.324Z,75422.66
2022-10-06T12:05:45.918Z,75449.63
2022-10-06T12:08:00.769Z,75432.31
2022-10-06T12:10:36.424Z,75428.44
2022-10-06T12:14:30.693Z,75503.59
2022-10-06T12:19:24.828Z,75569.06
2022-10-06T12:22:08.414Z,75522.84
2022-10-06T12:25:07.667Z,75526.69
2022-10-06T12:27:49.404Z,75513.22
2022-10-06T12:30:23.458Z,75511.28
2022-10-06T12:32:52.316Z,75486.25
2022-10-06T12:35:24.867Z,75465.06
2022-10-06T12:37:58.455Z,75422.66
2022-10-06T12:40:51.892Z,75445.78
2022-10-06T12:43:18.575Z,75490.09
2022-10-06T12:46:08.056Z,75465.06
2022-10-06T12:48:53.358Z,75445.78
2022-10-06T12:51:42.820Z,75420.75
2022-10-06T12:54:22.079Z,75401.47
2022-10-06T12:57:03.052Z,75409.19
2022-10-06T12:59:32.223Z,75395.69
2022-10-06T13:02:01.662Z,75391.84
2022-10-06T13:04:56.408Z,75449.63
2022-10-06T13:07:31.689Z,75519.00
2022-10-06T13:10:13.794Z,75578.72
2022-10-06T13:12:41.459Z,75592.19
2022-10-06T13:15:25.214Z,75596.03
2022-10-06T13:17:55.031Z,75584.50
2022-10-06T13:20:38.257Z,75578.72
2022-10-06T13:23:18.548Z,75615.31
2022-10-06T13:25:48.610Z,75596.03
2022-10-06T13:28:44.390Z,75582.56
2022-10-06T13:31:31.518Z,75584.50
2022-10-06T13:34:12.455Z,75565.22
2022-10-06T13:36:41.886Z,75549.81
2022-10-06T13:39:16.940Z,75544.03
2022-10-06T13:41:47.456Z,75561.38
2022-10-06T13:44:18.384Z,75534.41
2022-10-06T13:46:54.639Z,75557.53
2022-10-06T13:49:31.260Z,75565.22
2022-10-06T13:52:02.924Z,75542.09
2022-10-06T13:54:53.777Z,75557.53
2022-10-06T13:57:37.859Z,75576.78
2022-10-06T14:00:16.136Z,75588.34
2022-10-06T14:02:45.332Z,75630.72
2022-10-06T14:05:39.059Z,75638.44
2022-10-06T14:08:11.753Z,75630.72
2022-10-06T14:11:01.106Z,75628.78
2022-10-06T14:13:29.526Z,75628.78
2022-10-06T14:16:02.872Z,75650.00
2022-10-06T14:18:40.195Z,75648.06
2022-10-06T14:21:29.724Z,75646.13
2022-10-06T14:23:56.800Z,75636.50
2022-10-06T14:26:27.450Z,75623.03
2022-10-06T14:28:54.712Z,75611.47
2022-10-06T14:31:23.902Z,75603.75
2022-10-06T14:33:54.424Z,75605.69
2022-10-06T14:36:29.218Z,75630.72
2022-10-06T14:38:57.645Z,75650.00
2022-10-06T14:41:27.821Z,75661.56
2022-10-06T14:44:03.685Z,75673.09
2022-10-06T14:46:30.503Z,75696.22
2022-10-06T14:48:57.950Z,75707.78
2022-10-06T14:51:26.495Z,75702.00
2022-10-06T14:53:58.334Z,75698.16
2022-10-06T14:56:31.592Z,75700.09
2022-10-06T14:59:05.477Z,75692.38
2022-10-06T15:01:34.597Z,75694.31
2022-10-06T15:04:11.287Z,75717.41
2022-10-06T15:06:57.056Z,75738.63
2022-10-06T15:09:23.963Z,75750.16
2022-10-06T15:11:51.871Z,75750.16
2022-10-06T15:14:18.680Z,75754.03
2022-10-06T15:16:45.403Z,75761.72
2022-10-06T15:19:13.102Z,75771.38
2022-10-06T15:21:46.493Z,75781.00
2022-10-06T15:24:18.630Z,75794.47
2022-10-06T15:27:04.107Z,75804.13
2022-10-06T15:29:31.370Z,75827.22
2022-10-06T15:32:00.221Z,75833.00
2022-10-06T15:34:29.281Z,75836.88
2022-10-06T15:36:57.756Z,75856.13
2022-10-06T15:39:27.144Z,75869.63
2022-10-06T15:41:54.263Z,75885.03
2022-10-06T15:44:21.647Z,75900.44
2022-10-06T15:46:51.180Z,75915.84
2022-10-06T15:49:32.994Z,75927.41
2022-10-06T15:52:02.949Z,75942.84
2022-10-06T15:54:37.619Z,75958.25
2022-10-06T15:57:08.453Z,75977.50
2022-10-06T15:59:35.729Z,75996.78
2022-10-06T16:02:09.757Z,76016.03
2022-10-06T16:04:38.651Z,76039.16
2022-10-06T16:07:09.547Z,76058.44
2022-10-06T16:09:43.299Z,76071.91
2022-10-06T16:12:13.989Z,76100.81
2022-10-06T16:14:40.946Z,76122.00
2022-10-06T16:17:09.527Z,76143.22
2022-10-06T16:19:40.323Z,76156.69
2022-10-06T16:22:09.793Z,76175.97
2022-10-06T16:24:36.458Z,76197.16
2022-10-06T16:27:03.760Z,76208.72
2022-10-06T16:29:30.628Z,76228.00
2022-10-06T16:31:57.881Z,76243.41
2022-10-06T16:34:25.615Z,76251.13
2022-10-06T16:36:52.298Z,76270.38
2022-10-06T16:39:23.431Z,76289.66
2022-10-06T16:41:51.142Z,76297.34
2022-10-06T16:44:18.972Z,76312.78
2022-10-06T16:46:45.917Z,76326.25
2022-10-06T16:49:12.797Z,76347.47
2022-10-06T16:51:42.698Z,76357.09
2022-10-06T16:54:12.219Z,76370.56
2022-10-06T16:56:47.755Z,76386.00
2022-10-06T16:59:22.554Z,76399.47
2022-10-06T17:01:50.267Z,76412.97
2022-10-06T17:04:19.769Z,76430.31
2022-10-06T17:06:48.532Z,76445.72
2022-10-06T17:09:17.653Z,76451.50
2022-10-06T17:11:56.344Z,76472.72
2022-10-06T17:14:23.148Z,76490.06
2022-10-06T17:16:52.173Z,76505.47
2022-10-06T17:19:20.656Z,76520.88
2022-10-06T17:21:51.565Z,76524.72
2022-10-06T17:24:22.609Z,76534.38
2022-10-06T17:26:49.708Z,76544.00
2022-10-06T17:29:23.764Z,76532.44
2022-10-06T17:31:59.042Z,76540.16
2022-10-06T17:34:31.938Z,76549.78
2022-10-06T17:37:00.858Z,76559.41
2022-10-06T17:39:27.586Z,76567.13
2022-10-06T17:41:54.509Z,76574.84
2022-10-06T17:44:26.351Z,76582.53
2022-10-06T17:47:02.132Z,76596.03
2022-10-06T17:49:32.727Z,76599.88
2022-10-06T17:51:59.383Z,76621.09
2022-10-06T17:54:27.167Z,76636.50
2022-10-06T17:56:56.110Z,76650.00
2022-10-06T17:59:31.673Z,76667.34
2022-10-06T18:02:02.613Z,76671.19
2022-10-06T18:04:29.720Z,76682.75
2022-10-06T18:06:57.437Z,76678.91
2022-10-06T18:09:24.445Z,76682.75
2022-10-06T18:11:56.329Z,76673.13
2022-10-06T18:14:26.080Z,76686.59
2022-10-06T18:16:56.778Z,76694.31
2022-10-06T18:19:26.612Z,76721.28
2022-10-06T18:21:56.622Z,76736.72
2022-10-06T18:24:26.263Z,76748.28
2022-10-06T18:26:55.279Z,76754.06
2022-10-06T18:29:25.809Z,76759.84
2022-10-06T18:31:53.742Z,76757.91
2022-10-06T18:37:10.282Z,76771.41
2022-10-06T18:39:36.956Z,76771.41
2022-10-06T18:42:05.344Z,76782.97
2022-10-06T18:44:50.916Z,76800.31
2022-10-06T18:47:36.971Z,76811.88
2022-10-06T18:50:04.073Z,76817.66
2022-10-06T18:52:30.752Z,76823.44
2022-10-06T18:54:57.438Z,76827.28
2022-10-06T18:57:27.656Z,76831.13
2022-10-06T18:59:55.196Z,76844.63
2022-10-06T19:02:22.099Z,76848.47
2022-10-06T19:04:48.865Z,76848.47
2022-10-06T19:07:15.599Z,76850.41
2022-10-06T19:09:46.613Z,76848.47
2022-10-06T19:12:14.029Z,76840.78
2022-10-06T19:14:47.222Z,76829.22
2022-10-06T19:17:15.726Z,76833.06
2022-10-06T19:19:54.901Z,76838.84
2022-10-06T19:22:24.742Z,76846.56
2022-10-06T19:24:52.359Z,76844.63
2022-10-06T19:27:24.274Z,76848.47
2022-10-06T19:29:56.737Z,76858.13
2022-10-06T19:32:32.344Z,76867.75
2022-10-06T19:34:59.434Z,76875.47
2022-10-06T19:37:28.206Z,76871.63
2022-10-06T19:39:55.417Z,76875.47
2022-10-06T19:42:41.018Z,76879.31
2022-10-06T19:45:09.629Z,76879.31
2022-10-06T19:47:36.450Z,76885.09
2022-10-06T19:50:10.450Z,76896.66
2022-10-06T19:52:38.372Z,76902.44
2022-10-06T19:55:05.393Z,76912.09
2022-10-06T19:57:33.773Z,76921.72
2022-10-06T20:00:00.913Z,76917.88
2022-10-06T20:02:28.941Z,76925.56
2022-10-06T20:04:56.357Z,76929.44
2022-10-06T20:07:27.335Z,76941.00
2022-10-06T20:09:55.694Z,76950.63
2022-10-06T20:12:25.226Z,76962.19
2022-10-06T20:14:53.680Z,76964.13
2022-10-06T20:17:21.289Z,76969.91
2022-10-06T20:19:48.232Z,76983.38
2022-10-06T20:22:14.952Z,76991.09
2022-10-06T20:24:44.395Z,77008.44
2022-10-06T20:27:11.129Z,77023.88
2022-10-06T20:29:37.855Z,77037.34
2022-10-06T20:32:05.339Z,77043.13
2022-10-06T20:34:32.592Z,77052.78
2022-10-06T20:37:02.003Z,77060.47
2022-10-06T20:39:49.390Z,77060.47
2022-10-06T20:42:16.857Z,77066.25
2022-10-06T20:44:43.792Z,77068.19
2022-10-06T20:47:12.261Z,77075.91
2022-10-06T20:49:38.912Z,77073.97
2022-10-06T20:52:05.899Z,77079.75
2022-10-06T20:54:35.058Z,77077.81
2022-10-06T20:57:05.001Z,77091.31
2022-10-06T20:59:35.379Z,77093.25
2022-10-06T21:02:03.376Z,77093.25
2022-10-06T21:04:30.406Z,77102.88
2022-10-06T21:06:57.355Z,77093.25
2022-10-06T21:09:24.718Z,77079.75
2022-10-06T21:11:52.098Z,77102.88
2022-10-06T21:14:18.957Z,77114.44
2022-10-06T21:16:47.784Z,77112.53
2022-10-06T21:19:17.246Z,77116.38
2022-10-06T21:21:46.016Z,77127.94
2022-10-06T21:24:13.030Z,77122.16
2022-10-06T21:26:42.714Z,77118.31
2022-10-06T21:29:14.174Z,77114.44
2022-10-06T21:31:41.812Z,77118.31
2022-10-06T21:34:08.710Z,77118.31
2022-10-06T21:36:35.464Z,77126.00
2022-10-06T21:39:04.662Z,77133.72
2022-10-06T21:41:40.443Z,77145.28
2022-10-06T21:44:18.990Z,77147.22
2022-10-06T21:46:48.035Z,77153.00
2022-10-06T21:49:20.387Z,77154.91
2022-10-06T21:51:49.792Z,77139.50
2022-10-06T21:54:16.801Z,77147.22
2022-10-06T21:56:43.780Z,77147.22
2022-10-06T21:59:11.418Z,77141.44
2022-10-06T22:01:43.432Z,77141.44
2022-10-06T22:04:12.729Z,77147.22
2022-10-06T22:06:39.617Z,77145.28
2022-10-06T22:09:08.582Z,77149.13
2022-10-06T22:11:37.766Z,77149.13
2022-10-06T22:14:07.114Z,77151.06
2022-10-06T22:16:35.484Z,77156.84
2022-10-06T22:19:06.276Z,77162.63
2022-10-06T22:21:35.515Z,77151.06
2022-10-06T22:24:11.348Z,77149.13
2022-10-06T22:26:40.423Z,77149.13
2022-10-06T22:29:09.190Z,77141.44
2022-10-06T22:31:38.774Z,77145.28
2022-10-06T22:34:06.250Z,77156.84
2022-10-06T22:36:34.066Z,77160.69
2022-10-06T22:39:01.454Z,77172.28
2022-10-06T22:41:28.680Z,77153.00
2022-10-06T22:43:59.612Z,77149.13
2022-10-06T22:46:28.299Z,77156.84
2022-10-06T22:48:55.378Z,77179.97
2022-10-06T22:51:22.317Z,77193.47
2022-10-06T22:53:57.914Z,77203.09
2022-10-06T22:56:28.178Z,77203.09
2022-10-06T22:58:55.500Z,77203.09
2022-10-06T23:01:22.543Z,77203.09
2022-10-06T23:03:49.294Z,77203.09
2022-10-06T23:06:17.580Z,77205.03
2022-10-06T23:08:44.696Z,77201.19
2022-10-06T23:11:17.678Z,77191.53
2022-10-06T23:13:45.386Z,77191.53
2022-10-06T23:16:16.843Z,77187.69
2022-10-06T23:18:44.846Z,77195.41
2022-10-06T23:21:24.154Z,77191.53
2022-10-06T23:23:53.171Z,77185.75
2022-10-06T23:26:21.473Z,77201.19
2022-10-06T23:29:00.255Z,77201.19
2022-10-06T23:31:28.331Z,77203.09
2022-10-06T23:33:55.590Z,77203.09
2022-10-06T23:36:22.356Z,77206.97
2022-10-06T23:38:49.148Z,77205.03
2022-10-06T23:41:16.078Z,77214.66
2022-10-06T23:43:43.093Z,77203.09
2022-10-06T23:46:09.791Z,77206.97
2022-10-06T23:48:36.578Z,77212.75
2022-10-06T23:51:05.230Z,77216.59
2022-10-06T23:53:32.447Z,77218.53
2022-10-06T23:55:59.345Z,77226.22
2022-10-06T23:58:27.301Z,77245.50
